Meath Environmental Platform

Observations for Trim Market St

Time AQI Temp °C Hum % Pres Pa CO μg/m³ H₂S μg/m³ NO μg/m³ NO₂ μg/m³ O₃ μg/m³ SO₂ μg/m³ PM1 μg/m³ PM2.5 μg/m³ PM10 μg/m³
Thursday 9 July 2026
21:20 1 25.1 56 57,860 0 6.67 0 13.14 12.39 0 0.71 2.71 3.98
21:19 1 25.1 56 57,853 0 8.74 0 13.55 22.26 0 0.71 2.71 3.26
21:09 1 25.7 54 57,489 0 8.25 0 12.8 21.61 0 0.71 2.79 3.92
21:08 1 25.7 54 57,369 0 8.43 0 14.02 21.31 0 0.71 2.29 2.47
21:07 1 25.8 54 57,226 0 8.72 0 12.9 19.49 0 0.71 2.8 3.19
21:06 1 25.9 53 57,079 0 8.59 0 12.91 20.31 0 0 2.31 2.45
21:05 1 25.9 53 56,920 0 8.69 0 13.13 22.21 0 0.71 2.83 3.17
21:04 1 25.9 53 56,755 0 8.29 0 12.64 24.39 0 0.71 2.83 3.16
21:03 1 26 53 56,614 0 8.32 0 13.05 24.25 0 0.71 2.84 3.15
21:02 1 26.1 53 56,467 0 7.01 0 13.73 22.29 0 0.71 2.34 2.42
21:01 1 26.1 53 56,340 0 7.49 0 11.84 19.8 0 2.14 3.36 3.88
20:56 1 26.3 52 55,822 0 3.22 0 13.3 13.31 0 1.43 3.41 3.85
20:53 1 26.4 52 55,797 0 2.98 0 11.98 5.32 0 0.71 3.41 3.85
20:52 1 26.4 52 55,757 0 4.1 0 11.59 16.58 0 0.71 2.9 3.11
20:50 1 26.5 51 55,653 0 1.59 0 10.68 15.37 0 1.43 2.91 3.1
20:43 1 26.7 51 55,690 1.32 14.34 0.73 18.5 1.47 0 0.71 2.94 3.08
20:38 1 26.8 50 55,978 0 1.22 0 8.23 15.19 0 0.71 2.96 3.06
20:37 1 26.9 50 56,082 0 2.63 0 10.61 13.85 0 0.71 2.96 3.06
20:36 1 26.9 50 56,264 0 3.01 0.04 15.82 4.36 0 0 2.45 2.7
20:35 1 27 50 56,433 0 0 0 10.31 11.09 0 0.71 2.97 3.05